createdAt,value
2023-04-18T16:02:44.428Z,101785.34
2023-04-18T16:06:52.466Z,101766.56
2023-04-18T16:41:27.155Z,101833.84
2023-04-18T16:45:42.127Z,101852.31
2023-04-18T16:49:51.188Z,101847.56
2023-04-18T16:53:59.188Z,101857.31
2023-04-18T16:58:06.996Z,101849.84
2023-04-18T17:06:39.111Z,101865.22
2023-04-18T17:10:47.052Z,101854.00
2023-04-18T17:25:17.501Z,101879.88
2023-04-18T17:39:42.052Z,101920.09
2023-04-18T17:44:00.142Z,101885.31
2023-04-18T17:48:02.979Z,101895.22
2023-04-18T17:52:11.093Z,101922.09
2023-04-18T17:56:54.104Z,101950.84
2023-04-18T18:01:20.140Z,101947.91
2023-04-18T18:10:38.104Z,101946.66
2023-04-18T18:15:00.122Z,101930.13
2023-04-18T18:19:24.275Z,101975.47
2023-04-18T18:23:50.031Z,101978.72
2023-04-18T18:38:18.327Z,101969.63
2023-04-18T18:47:25.073Z,102008.75
2023-04-18T18:51:34.420Z,102000.25
2023-04-18T19:00:54.105Z,101956.94
2023-04-18T19:05:33.053Z,102059.59
2023-04-18T19:09:55.046Z,102020.69
2023-04-18T19:19:18.053Z,102083.88
2023-04-18T19:43:18.076Z,102082.84
2023-04-18T19:47:40.255Z,102077.09
2023-04-18T19:52:09.015Z,102068.78
2023-04-18T19:56:31.182Z,102106.44
2023-04-18T20:01:16.074Z,102111.94
2023-04-18T20:05:38.207Z,102046.97
2023-04-18T20:09:48.103Z,102111.31
2023-04-18T20:14:12.120Z,102116.59
2023-04-18T20:18:30.209Z,102118.81
2023-04-18T20:32:20.081Z,102058.41
2023-04-18T20:36:43.120Z,102098.69
2023-04-18T20:41:20.101Z,102097.22
2023-04-18T20:51:25.293Z,102083.66
2023-04-18T20:55:47.141Z,102052.78
2023-04-18T21:00:05.136Z,102013.97
2023-04-18T21:04:43.551Z,102095.53
2023-04-18T21:09:34.132Z,102099.88
2023-04-18T21:13:58.118Z,102105.28
2023-04-18T21:18:06.518Z,102107.91
2023-04-18T21:22:14.045Z,102103.38
2023-04-18T21:35:20.291Z,102116.59
2023-04-18T21:39:36.313Z,102105.47
2023-04-18T21:43:52.188Z,102117.25
2023-04-18T21:53:15.075Z,102121.16
2023-04-18T22:02:09.207Z,102102.72
2023-04-18T22:06:24.153Z,102082.09
2023-04-18T22:10:48.259Z,102040.50
2023-04-18T22:19:31.071Z,102100.94
2023-04-18T22:24:32.180Z,102116.91
2023-04-18T22:28:54.179Z,102119.34
2023-04-18T22:33:16.477Z,102089.63
2023-04-18T22:37:35.137Z,102042.47
2023-04-18T22:41:50.031Z,102127.50
2023-04-18T22:46:14.255Z,102037.06
2023-04-18T22:50:37.091Z,102109.47
2023-04-18T22:55:23.102Z,102126.63
2023-04-18T22:59:45.437Z,102136.38
2023-04-18T23:03:53.762Z,102118.47
2023-04-18T23:08:03.215Z,102133.94
2023-04-18T23:12:19.210Z,102132.97
2023-04-18T23:16:35.113Z,102112.88
2023-04-18T23:20:50.340Z,102133.19
2023-04-18T23:29:57.296Z,102050.19
2023-04-18T23:34:47.096Z,102140.91
